HTDA/DAR METAR and TAF weather

Enter ICAO airport designator
Station Type Date Time Source
HTDA METAR 2019/10/18 05:00 UTC NOAA

HTDA 180500Z 00000KT 9999 -RA BKN011 FEW014CB BKN070 24/23 Q1015 NOSIG


Station Type Date Time Source
HTDA Decoded METAR 2019/10/18 05:00 UTC NOAA

Dar Es Salaam Airport, Tanzania (HTDA) 06-52S 039-12E 55M
Oct 18, 2019 - 01:00 AM EDT / 2019.10.18 0500 UTC
Wind: Calm:0
Visibility: greater than 7 mile(s):0
Sky conditions: mostly cloudy
Weather: light rain; Cumulonimbus clouds observed
Temperature: 75 F (24 C)
Dew Point: 73 F (23 C)
Relative Humidity: 94%
Pressure (altimeter): 29.97 in. Hg (1015 hPa)
ob: HTDA 180500Z 00000KT 9999 -RA BKN011 FEW014CB BKN070 24/23 Q1015 NOSIG
cycle: 5

Station Type Date Time Source
HTDA TAF 2019/10/18 06:54 UTC NOAA

TAF HTDA 180500Z 1806/1912 11010KT 9999 BKN013 FEW014CB
TEMPO 1806/1810 RA
BECMG 1815/1818 SCT013 FEW014CB

Example: see airport list